Time;durP1;ratioP1;P1;durP2;ratioP2;P2;SDS_P1;SDS_P2;PMS_P1;PMS_P2;Temp;Humidity;BMP_temperature;BMP_pressure;BME280_temperature;BME280_humidity;BME280_pressure;Samples;Min_cycle;Max_cycle;Signal;HPM_P1;HPM_P2
2022/04/07 00:00:19;;;;;;;4.77;2.27;;;9.60;99.90;;;;;;5093631;28;20683;-75
2022/04/07 00:02:46;;;;;;;4.07;1.90;;;9.60;99.90;;;;;;5075329;28;20672;-75
2022/04/07 00:05:12;;;;;;;2.63;1.80;;;9.50;99.90;;;;;;5093580;28;20190;-75
2022/04/07 00:07:38;;;;;;;3.20;1.80;;;9.50;99.90;;;;;;5075355;28;20205;-74
2022/04/07 00:10:04;;;;;;;2.57;1.63;;;9.50;99.90;;;;;;5075333;28;20557;-76
2022/04/07 00:12:32;;;;;;;1.97;1.33;;;9.50;99.90;;;;;;5074990;28;20193;-74
2022/04/07 00:14:59;;;;;;;2.17;1.50;;;9.50;99.90;;;;;;5075316;28;20177;-75
2022/04/07 00:17:25;;;;;;;5.40;1.50;;;9.40;99.90;;;;;;5093535;28;20209;-75
2022/04/07 00:19:51;;;;;;;3.20;1.20;;;9.50;99.90;;;;;;5075896;28;20715;-76
2022/04/07 00:22:17;;;;;;;1.13;1.03;;;9.50;99.90;;;;;;5075494;28;20182;-75
2022/04/07 00:24:42;;;;;;;4.23;1.23;;;9.50;99.90;;;;;;5075427;28;20186;-75
2022/04/07 00:27:08;;;;;;;2.07;1.30;;;9.50;99.90;;;;;;5093351;28;20204;-76
2022/04/07 00:29:34;;;;;;;2.77;1.10;;;9.50;99.90;;;;;;5093159;28;20657;-75
2022/04/07 00:32:03;;;;;;;2.10;1.30;;;9.50;99.90;;;;;;5093407;28;20181;-76
2022/04/07 00:34:29;;;;;;;1.60;1.33;;;9.50;99.90;;;;;;5075321;28;20193;-76
2022/04/07 00:36:55;;;;;;;2.90;1.40;;;9.50;99.90;;;;;;5075214;28;20218;-76
2022/04/07 00:39:21;;;;;;;2.07;1.30;;;9.50;99.90;;;;;;5093154;28;20645;-76
2022/04/07 00:41:47;;;;;;;3.03;1.40;;;9.50;99.90;;;;;;5093720;28;20174;-75
2022/04/07 00:44:13;;;;;;;4.73;1.20;;;9.50;99.90;;;;;;5092911;28;20265;-76
2022/04/07 00:46:39;;;;;;;3.43;1.40;;;9.40;99.90;;;;;;5093024;28;20227;-75
2022/04/07 00:49:06;;;;;;;2.27;1.33;;;9.40;99.90;;;;;;5074868;28;20184;-76
2022/04/07 00:51:32;;;;;;;3.63;1.73;;;9.50;99.90;;;;;;5074951;28;20212;-76
2022/04/07 00:53:58;;;;;;;2.73;1.33;;;9.40;99.90;;;;;;5092281;28;20186;-76
2022/04/07 00:56:25;;;;;;;1.53;1.30;;;9.50;99.90;;;;;;5092818;28;20198;-76
2022/04/07 00:58:50;;;;;;;1.90;1.47;;;9.40;99.90;;;;;;5076874;28;20190;-76
2022/04/07 01:01:20;;;;;;;3.17;1.37;;;9.40;99.90;;;;;;5079115;28;20601;-76
2022/04/07 01:03:46;;;;;;;2.87;1.60;;;9.50;99.90;;;;;;5096544;28;20167;-74
2022/04/07 01:06:12;;;;;;;3.97;1.80;;;9.40;99.90;;;;;;5078864;28;20186;-74
2022/04/07 01:08:38;;;;;;;2.00;1.40;;;9.40;99.90;;;;;;5096951;28;20170;-76
2022/04/07 01:11:03;;;;;;;2.53;1.50;;;9.40;99.90;;;;;;5078700;28;20186;-76
2022/04/07 01:13:46;;;;;;;2.17;1.50;;;9.50;99.90;;;;;;5078932;28;20600;-73
2022/04/07 01:16:12;;;;;;;2.70;1.50;;;9.40;99.90;;;;;;5096205;28;20566;-75
2022/04/07 01:18:38;;;;;;;3.60;1.30;;;9.50;99.90;;;;;;5096645;28;20202;-75
2022/04/07 01:21:05;;;;;;;2.07;1.20;;;9.50;99.90;;;;;;5078571;28;20604;-76
2022/04/07 01:23:34;;;;;;;4.90;1.40;;;9.60;99.90;;;;;;5096558;28;20549;-75
2022/04/07 01:26:04;;;;;;;1.63;1.00;;;9.60;99.90;;;;;;5078345;28;20187;-76
2022/04/07 01:28:31;;;;;;;3.97;1.47;;;9.60;99.90;;;;;;5097089;28;20159;-75
2022/04/07 01:30:57;;;;;;;1.67;1.30;;;9.60;99.90;;;;;;5096947;28;20190;-76
2022/04/07 01:33:23;;;;;;;3.10;1.00;;;9.70;99.90;;;;;;5078089;28;20241;-77
2022/04/07 01:35:50;;;;;;;3.20;1.13;;;9.80;99.90;;;;;;5078261;28;20190;-76
2022/04/07 01:38:18;;;;;;;3.23;1.23;;;9.80;99.90;;;;;;5096631;28;20638;-76
2022/04/07 01:40:44;;;;;;;3.43;1.10;;;9.80;99.90;;;;;;5079020;28;20186;-76
2022/04/07 01:43:11;;;;;;;1.40;1.07;;;9.80;99.90;;;;;;5102047;28;20186;-76
2022/04/07 01:45:38;;;;;;;5.37;1.20;;;9.80;99.90;;;;;;5096760;28;20179;-76
2022/04/07 01:48:07;;;;;;;3.07;1.10;;;9.80;99.90;;;;;;5096338;28;20256;-76
2022/04/07 01:50:33;;;;;;;2.27;1.27;;;9.80;74.20;;;;;;5096135;28;20232;-76
2022/04/07 01:52:59;;;;;;;2.83;1.30;;;9.80;99.90;;;;;;5096198;28;20182;-76
2022/04/07 01:55:26;;;;;;;3.50;1.10;;;9.80;99.90;;;;;;5096039;28;20197;-75
2022/04/07 01:57:52;;;;;;;2.40;1.10;;;9.80;99.90;;;;;;5095840;28;20225;-76
2022/04/07 02:00:17;;;;;;;1.53;0.97;;;9.80;99.90;;;;;;5095927;28;20174;-76
2022/04/07 02:02:45;;;;;;;2.80;0.90;;;9.80;99.90;;;;;;5095748;28;20174;-75
2022/04/07 02:05:11;;;;;;;3.73;0.90;;;9.80;99.90;;;;;;5077674;28;20248;-76
2022/04/07 02:07:39;;;;;;;2.83;1.07;;;9.80;99.90;;;;;;5077622;28;20234;-76
2022/04/07 02:10:10;;;;;;;3.10;1.10;;;9.80;99.90;;;;;;5076446;28;20190;-77
2022/04/07 02:12:37;;;;;;;3.93;1.20;;;9.80;99.90;;;;;;5095636;28;20171;-76
2022/04/07 02:15:04;;;;;;;1.77;0.83;;;9.80;99.90;;;;;;5095598;28;20170;-76
2022/04/07 02:17:30;;;;;;;5.17;1.60;;;9.80;99.90;;;;;;5095494;28;20221;-75
2022/04/07 02:19:58;;;;;;;1.73;1.20;;;9.80;99.90;;;;;;5077358;28;20186;-75
2022/04/07 02:22:24;;;;;;;2.47;1.13;;;9.80;99.90;;;;;;5095955;28;20638;-75
2022/04/07 02:24:50;;;;;;;3.93;1.20;;;9.80;99.90;;;;;;5095515;28;20645;-76
2022/04/07 02:27:16;;;;;;;2.00;1.17;;;9.90;99.90;;;;;;5095557;28;20285;-76
2022/04/07 02:29:42;;;;;;;3.13;1.10;;;9.90;99.90;;;;;;5077433;28;20186;-76
2022/04/07 02:32:09;;;;;;;4.27;1.80;;;9.90;99.90;;;;;;5095412;28;20200;-75
2022/04/07 02:34:35;;;;;;;2.23;1.03;;;9.90;99.90;;;;;;5077081;28;20197;-75
2022/04/07 02:37:01;;;;;;;2.73;1.37;;;9.90;99.90;;;;;;5077042;28;20305;-75
2022/04/07 02:39:27;;;;;;;3.27;1.20;;;9.90;99.90;;;;;;5095231;28;20548;-75
2022/04/07 02:41:53;;;;;;;5.00;1.50;;;9.90;99.90;;;;;;5095249;28;20622;-75
2022/04/07 02:44:20;;;;;;;2.37;1.43;;;9.90;99.90;;;;;;5076997;28;20276;-75
2022/04/07 02:46:45;;;;;;;4.47;1.50;;;9.80;99.90;;;;;;5094269;28;20218;-76
2022/04/07 02:49:11;;;;;;;3.00;1.30;;;9.90;99.90;;;;;;5076492;28;20593;-76
2022/04/07 02:51:37;;;;;;;2.93;1.30;;;9.90;99.90;;;;;;5095057;28;20216;-76
2022/04/07 02:54:02;;;;;;;1.70;1.30;;;9.80;99.90;;;;;;5076789;28;20213;-76
2022/04/07 02:56:29;;;;;;;1.33;1.20;;;9.80;99.90;;;;;;5094793;28;20232;-76
2022/04/07 02:58:55;;;;;;;1.33;1.13;;;9.80;99.90;;;;;;5076619;28;20738;-75
2022/04/07 03:01:21;;;;;;;2.13;1.10;;;9.80;99.90;;;;;;5094841;28;20178;-75
2022/04/07 03:03:48;;;;;;;3.10;1.40;;;9.70;99.90;;;;;;5095304;28;20735;-76
2022/04/07 03:06:14;;;;;;;2.00;1.20;;;9.70;99.90;;;;;;5094590;28;20719;-75
2022/04/07 03:08:40;;;;;;;3.00;1.30;;;9.70;99.90;;;;;;5094997;28;20214;-76
2022/04/07 03:11:08;;;;;;;2.43;1.20;;;9.70;99.90;;;;;;5094734;28;20177;-75
2022/04/07 03:13:33;;;;;;;4.07;1.30;;;9.70;99.90;;;;;;5094683;28;20174;-76
2022/04/07 03:15:59;;;;;;;5.07;1.30;;;9.70;99.90;;;;;;5094536;28;20543;-75
2022/04/07 03:18:25;;;;;;;2.93;1.07;;;9.80;99.90;;;;;;5076152;28;20214;-75
2022/04/07 03:20:51;;;;;;;1.87;1.20;;;9.80;99.90;;;;;;5076090;28;20209;-75
2022/04/07 03:23:16;;;;;;;1.93;1.30;;;9.80;99.90;;;;;;5094377;28;20178;-76
2022/04/07 03:25:42;;;;;;;2.10;0.90;;;9.80;99.90;;;;;;5094979;28;20171;-75
2022/04/07 03:28:07;;;;;;;1.63;1.10;;;9.80;99.90;;;;;;5094733;28;20202;-76
2022/04/07 03:30:33;;;;;;;2.07;1.37;;;9.80;99.90;;;;;;5080636;28;20714;-75
2022/04/07 03:32:58;;;;;;;3.50;1.40;;;9.80;99.90;;;;;;5077411;28;20195;-76
2022/04/07 03:35:25;;;;;;;3.03;1.13;;;9.80;99.90;;;;;;5094141;28;20556;-75
2022/04/07 03:37:50;;;;;;;6.13;1.37;;;9.80;99.90;;;;;;5093949;28;20259;-75
2022/04/07 03:40:17;;;;;;;2.33;1.00;;;9.80;99.90;;;;;;5075873;28;20265;-75
2022/04/07 03:42:44;;;;;;;2.87;1.43;;;9.90;99.90;;;;;;5093933;28;20186;-75
2022/04/07 03:45:10;;;;;;;4.83;1.53;;;9.90;99.90;;;;;;5075877;28;20653;-75
2022/04/07 03:47:36;;;;;;;3.47;1.40;;;10.00;99.90;;;;;;5075628;28;20220;-76
2022/04/07 03:50:02;;;;;;;3.57;1.00;;;9.90;99.90;;;;;;5094038;28;20174;-76
2022/04/07 03:52:28;;;;;;;5.10;1.20;;;10.00;99.90;;;;;;5093514;28;20265;-75
2022/04/07 03:54:53;;;;;;;3.30;1.07;;;10.00;27.50;;;;;;5094089;28;20232;-76
2022/04/07 03:57:19;;;;;;;2.57;0.93;;;10.00;57.90;;;;;;5093715;28;20213;-75
2022/04/07 03:59:44;;;;;;;4.67;1.13;;;10.00;78.20;;;;;;5093639;28;20210;-74
2022/04/07 04:02:12;;;;;;;6.67;1.30;;;10.00;13.50;;;;;;5093200;28;20179;-76
2022/04/07 04:04:38;;;;;;;7.03;1.17;;;10.00;1.00;;;;;;5093644;28;20163;-76
2022/04/07 04:07:04;;;;;;;6.00;1.20;;;10.00;1.00;;;;;;5093667;28;20237;-76
2022/04/07 04:09:31;;;;;;;6.60;1.60;;;10.10;1.00;;;;;;5093484;28;20213;-75
2022/04/07 04:11:56;;;;;;;5.23;1.10;;;10.10;1.00;;;;;;5093268;28;20174;-76
2022/04/07 04:14:22;;;;;;;4.00;1.03;;;10.10;1.00;;;;;;5092936;28;20208;-77
2022/04/07 04:16:48;;;;;;;6.67;1.40;;;10.10;1.00;;;;;;5074776;28;20352;-75
2022/04/07 04:19:13;;;;;;;3.93;1.03;;;10.00;1.00;;;;;;5093750;28;20163;-76
2022/04/07 04:21:39;;;;;;;5.23;1.07;;;10.00;1.00;;;;;;5093583;28;20182;-76
2022/04/07 04:24:04;;;;;;;3.80;1.60;;;10.00;1.00;;;;;;5093031;28;20577;-76
2022/04/07 04:26:30;;;;;;;5.43;1.17;;;10.00;60.10;;;;;;5093154;28;20296;-76
2022/04/07 04:28:56;;;;;;;7.23;1.10;;;10.00;79.00;;;;;;5075003;28;20190;-76
2022/04/07 04:31:24;;;;;;;3.50;1.30;;;10.00;91.60;;;;;;5075032;28;20216;-76
2022/04/07 04:33:54;;;;;;;2.93;1.03;;;10.00;99.90;;;;;;5092314;28;20558;-76
2022/04/07 04:36:20;;;;;;;3.37;1.20;;;10.00;99.90;;;;;;5074202;28;20236;-75
2022/04/07 04:38:47;;;;;;;2.50;1.10;;;10.00;99.90;;;;;;5074678;28;20206;-75
2022/04/07 04:41:12;;;;;;;3.00;0.87;;;10.00;99.90;;;;;;5093306;28;20186;-75
2022/04/07 04:43:38;;;;;;;4.17;1.23;;;9.90;99.90;;;;;;5074745;28;20723;-75
2022/04/07 04:46:03;;;;;;;2.10;1.10;;;9.90;99.90;;;;;;5093201;28;20589;-74
2022/04/07 04:48:29;;;;;;;2.00;1.20;;;9.90;99.90;;;;;;5093143;28;20186;-75
2022/04/07 04:50:57;;;;;;;4.10;1.30;;;9.80;99.90;;;;;;5093058;28;20174;-75
2022/04/07 04:53:23;;;;;;;4.33;1.40;;;9.80;99.90;;;;;;5093122;28;20644;-74
2022/04/07 04:55:49;;;;;;;3.23;1.10;;;9.70;99.90;;;;;;5092831;28;20220;-75
2022/04/07 04:58:15;;;;;;;2.93;1.50;;;9.70;99.90;;;;;;5092693;28;20237;-75
2022/04/07 05:00:41;;;;;;;2.70;1.10;;;9.70;99.90;;;;;;5092716;28;20234;-75
2022/04/07 05:03:08;;;;;;;2.47;1.20;;;9.70;99.90;;;;;;5092448;28;20178;-74
2022/04/07 05:05:34;;;;;;;2.47;1.30;;;9.60;99.90;;;;;;5093321;28;20285;-74
2022/04/07 05:07:59;;;;;;;2.70;1.30;;;9.60;99.90;;;;;;5093340;28;20208;-75
2022/04/07 05:10:25;;;;;;;3.30;1.60;;;9.60;99.90;;;;;;5092956;28;20179;-75
2022/04/07 05:12:51;;;;;;;5.17;1.37;;;9.50;99.90;;;;;;5074772;28;20178;-75
2022/04/07 05:15:17;;;;;;;4.07;1.47;;;9.50;99.90;;;;;;5092771;28;20174;-75
2022/04/07 05:20:12;;;;;;;3.13;1.40;;;9.50;99.90;;;;;;5051551;28;20725;-78
2022/04/07 05:22:38;;;;;;;1.93;1.10;;;9.50;99.90;;;;;;5053302;28;20171;-78
2022/04/07 05:25:04;;;;;;;3.13;1.30;;;9.50;99.90;;;;;;5052620;28;20190;-78
2022/04/07 05:27:32;;;;;;;4.20;1.63;;;9.50;99.90;;;;;;5047227;28;20277;-79
2022/04/07 05:29:58;;;;;;;3.00;1.20;;;9.50;99.90;;;;;;5073074;28;20225;-79
2022/04/07 05:32:24;;;;;;;1.97;1.03;;;9.50;99.90;;;;;;5054999;28;20700;-79
2022/04/07 05:34:49;;;;;;;1.40;1.00;;;9.50;99.90;;;;;;5072808;28;20183;-78
2022/04/07 05:37:15;;;;;;;1.50;1.20;;;9.60;99.90;;;;;;5054520;28;20272;-79
2022/04/07 05:39:40;;;;;;;3.60;1.20;;;9.60;99.90;;;;;;5072749;28;20195;-78
2022/04/07 05:42:06;;;;;;;5.20;1.10;;;9.70;99.90;;;;;;5073288;28;20207;-78
2022/04/07 05:44:32;;;;;;;1.90;1.00;;;9.70;99.90;;;;;;5074552;28;20191;-80
2022/04/07 05:46:57;;;;;;;2.53;1.10;;;9.70;99.90;;;;;;5076898;28;20253;-79
2022/04/07 05:49:23;;;;;;;3.10;1.20;;;9.80;99.90;;;;;;5059103;28;20693;-79
2022/04/07 05:51:50;;;;;;;1.43;0.87;;;9.80;99.90;;;;;;5058991;28;20186;-79
2022/04/07 05:54:17;;;;;;;1.07;0.80;;;9.90;99.90;;;;;;5077337;28;20186;-79
2022/04/07 05:56:43;;;;;;;1.80;0.90;;;9.90;99.90;;;;;;5076630;28;20259;-79
2022/04/07 05:59:08;;;;;;;2.20;0.60;;;10.00;99.90;;;;;;5077089;28;20286;-79
2022/04/07 06:01:34;;;;;;;1.37;0.80;;;10.00;99.90;;;;;;5058750;28;20205;-79
2022/04/07 06:03:59;;;;;;;1.07;0.70;;;10.00;99.90;;;;;;5058492;28;20619;-76
2022/04/07 06:06:25;;;;;;;1.10;0.60;;;10.00;99.90;;;;;;5075486;28;20182;-76
2022/04/07 06:08:50;;;;;;;2.50;1.00;;;10.00;99.90;;;;;;5057437;28;20213;-76
2022/04/07 06:11:16;;;;;;;3.47;0.97;;;10.00;99.90;;;;;;5057416;28;20219;-76
2022/04/07 06:13:42;;;;;;;3.30;0.80;;;10.00;99.90;;;;;;5075373;28;20175;-78
2022/04/07 06:16:08;;;;;;;2.23;0.90;;;10.00;99.90;;;;;;5075506;28;20179;-76
2022/04/07 06:18:33;;;;;;;1.50;0.90;;;10.00;99.90;;;;;;5081882;28;20209;-76
2022/04/07 06:20:59;;;;;;;0.90;0.50;;;10.10;99.90;;;;;;5095469;28;20175;-76
2022/04/07 06:23:26;;;;;;;2.97;1.10;;;10.10;99.90;;;;;;5077236;28;20543;-76
2022/04/07 06:25:52;;;;;;;2.17;0.90;;;10.00;99.90;;;;;;5077227;28;20555;-76
2022/04/07 06:28:22;;;;;;;2.17;0.77;;;10.00;99.90;;;;;;5095322;28;20198;-76
2022/04/07 06:30:48;;;;;;;1.53;0.70;;;10.00;99.90;;;;;;5077135;28;20580;-77
2022/04/07 06:33:13;;;;;;;3.43;0.90;;;10.00;99.90;;;;;;5077074;28;20186;-76
2022/04/07 06:35:39;;;;;;;1.90;0.80;;;10.00;99.90;;;;;;5076854;28;20209;-77
2022/04/07 06:38:05;;;;;;;1.77;0.77;;;10.00;99.90;;;;;;5095283;28;20225;-76
2022/04/07 06:40:31;;;;;;;1.73;0.70;;;10.00;99.90;;;;;;5095125;28;20254;-76
2022/04/07 06:42:58;;;;;;;2.50;0.70;;;10.00;99.90;;;;;;5095041;28;20609;-76
2022/04/07 06:45:26;;;;;;;1.87;0.90;;;10.00;99.90;;;;;;5076894;28;20212;-76
2022/04/07 06:47:51;;;;;;;0.90;0.70;;;10.00;99.90;;;;;;5094747;28;20668;-76
2022/04/07 06:50:19;;;;;;;1.93;0.80;;;10.00;99.90;;;;;;5094927;28;20240;-77
2022/04/07 06:52:45;;;;;;;1.50;0.80;;;10.00;99.90;;;;;;5076697;28;20735;-77
2022/04/07 06:55:13;;;;;;;4.50;0.70;;;10.00;99.90;;;;;;5094824;28;20182;-76
2022/04/07 06:57:56;;;;;;;1.03;0.67;;;10.00;99.90;;;;;;5094149;28;20205;-76
2022/04/07 07:00:24;;;;;;;1.63;0.90;;;10.00;99.90;;;;;;5094806;28;20173;-76
2022/04/07 07:02:54;;;;;;;2.33;0.87;;;10.00;99.90;;;;;;5076565;28;20252;-76
2022/04/07 07:05:21;;;;;;;1.73;0.67;;;10.00;99.90;;;;;;5094606;28;20178;-77
2022/04/07 07:07:46;;;;;;;1.30;0.60;;;10.00;99.90;;;;;;5094630;28;20196;-77
2022/04/07 07:10:12;;;;;;;1.93;0.70;;;10.00;99.90;;;;;;5094762;28;20700;-77
2022/04/07 07:12:38;;;;;;;2.03;0.70;;;10.10;99.90;;;;;;5094501;28;20177;-77
2022/04/07 07:15:04;;;;;;;2.20;0.60;;;10.10;99.90;;;;;;5094419;28;20262;-77
2022/04/07 07:17:33;;;;;;;1.50;0.80;;;10.10;99.90;;;;;;5076097;28;20198;-77
2022/04/07 07:20:04;;;;;;;1.37;0.90;;;10.10;99.90;;;;;;5076228;28;20618;-76
2022/04/07 07:22:30;;;;;;;1.13;0.60;;;10.10;99.90;;;;;;5094324;28;20695;-77
2022/04/07 07:24:56;;;;;;;1.10;0.60;;;10.10;99.90;;;;;;5094753;28;20182;-77
2022/04/07 07:27:21;;;;;;;2.67;1.10;;;10.10;99.90;;;;;;5094320;28;20174;-76
2022/04/07 07:29:47;;;;;;;2.97;0.70;;;10.20;99.90;;;;;;5075905;28;20202;-76
2022/04/07 07:32:12;;;;;;;1.33;0.77;;;10.10;99.90;;;;;;5094398;28;20521;-77
2022/04/07 07:34:38;;;;;;;3.47;0.80;;;10.20;99.90;;;;;;5094204;28;20175;-77
2022/04/07 07:37:03;;;;;;;1.03;0.60;;;10.20;99.90;;;;;;5075758;28;20217;-77
2022/04/07 07:39:29;;;;;;;1.70;0.87;;;10.20;99.90;;;;;;5093861;28;20206;-77
2022/04/07 07:41:55;;;;;;;2.03;0.80;;;10.10;99.90;;;;;;5094863;28;20174;-78
2022/04/07 07:44:20;;;;;;;1.40;0.60;;;10.20;99.90;;;;;;5095346;28;20170;-79
2022/04/07 07:46:46;;;;;;;1.13;0.60;;;10.20;99.90;;;;;;5095772;28;20282;-79
2022/04/07 07:49:11;;;;;;;1.07;0.50;;;10.20;99.90;;;;;;5095633;28;20202;-79
2022/04/07 07:51:37;;;;;;;1.67;0.80;;;10.20;99.90;;;;;;5095399;28;20585;-79
2022/04/07 07:54:04;;;;;;;4.00;1.07;;;10.20;99.90;;;;;;5077168;28;20175;-79
2022/04/07 07:56:29;;;;;;;1.77;0.50;;;10.20;99.90;;;;;;5095940;28;20179;-79
2022/04/07 07:58:55;;;;;;;0.67;0.60;;;10.30;99.90;;;;;;5077430;28;20774;-79
2022/04/07 08:01:20;;;;;;;3.40;0.87;;;10.30;99.90;;;;;;5096003;28;20175;-79
2022/04/07 08:03:46;;;;;;;1.67;0.30;;;10.30;99.90;;;;;;5095706;28;20175;-79
2022/04/07 08:06:11;;;;;;;0.77;0.47;;;10.30;99.90;;;;;;5095921;28;20182;-79
2022/04/07 08:08:37;;;;;;;1.13;0.43;;;10.30;99.90;;;;;;5075813;28;20205;-79
2022/04/07 08:11:03;;;;;;;1.67;0.50;;;10.30;99.90;;;;;;5095666;28;20664;-79
2022/04/07 08:13:28;;;;;;;1.90;0.40;;;10.40;99.90;;;;;;5075308;28;20185;-76
2022/04/07 08:15:54;;;;;;;0.73;0.43;;;10.40;99.90;;;;;;5093603;28;20257;-76
2022/04/07 08:18:19;;;;;;;0.50;0.40;;;10.50;99.90;;;;;;5093013;28;20214;-76
2022/04/07 08:20:45;;;;;;;0.70;0.40;;;10.50;99.90;;;;;;5093252;28;20180;-76
2022/04/07 08:23:10;;;;;;;0.50;0.43;;;10.50;99.90;;;;;;5093135;28;20174;-77
2022/04/07 08:25:36;;;;;;;0.40;0.37;;;10.60;99.90;;;;;;5093135;28;20178;-77
2022/04/07 08:28:02;;;;;;;0.63;0.40;;;10.70;99.90;;;;;;5093058;28;20236;-77
2022/04/07 08:30:28;;;;;;;1.50;0.50;;;10.80;99.90;;;;;;5093398;28;20193;-77
2022/04/07 08:32:53;;;;;;;0.60;0.40;;;10.80;99.90;;;;;;5074874;28;20653;-77
2022/04/07 08:35:19;;;;;;;0.77;0.47;;;10.90;99.90;;;;;;5092934;28;20174;-77
2022/04/07 08:37:44;;;;;;;2.23;0.47;;;10.90;99.90;;;;;;5092786;28;20193;-77
2022/04/07 08:40:10;;;;;;;1.90;0.30;;;10.90;99.90;;;;;;5092854;28;20181;-77
2022/04/07 08:42:36;;;;;;;1.00;0.47;;;10.90;99.90;;;;;;5074875;28;20189;-77
2022/04/07 08:45:03;;;;;;;0.70;0.33;;;11.00;99.90;;;;;;5075016;28;20547;-77
2022/04/07 08:47:29;;;;;;;1.67;0.40;;;11.00;99.90;;;;;;5074712;28;20695;-76
2022/04/07 08:49:56;;;;;;;0.30;0.30;;;11.10;99.90;;;;;;5092702;28;20228;-77
2022/04/07 08:52:22;;;;;;;0.67;0.30;;;11.10;99.90;;;;;;5074729;28;20183;-77
2022/04/07 08:54:48;;;;;;;0.27;0.20;;;11.20;99.90;;;;;;5092861;28;20575;-77
2022/04/07 08:57:14;;;;;;;0.97;0.30;;;11.20;99.90;;;;;;5074647;28;20681;-77
2022/04/07 08:59:41;;;;;;;0.40;0.40;;;11.20;99.90;;;;;;5092616;28;20193;-77
2022/04/07 09:02:08;;;;;;;0.40;0.40;;;11.30;99.90;;;;;;5074509;28;20178;-77
2022/04/07 09:04:38;;;;;;;0.30;0.30;;;11.30;99.90;;;;;;5074594;28;20601;-77
2022/04/07 09:07:04;;;;;;;0.20;0.20;;;11.40;99.90;;;;;;5092677;28;20181;-77
2022/04/07 09:09:36;;;;;;;1.27;0.40;;;11.50;99.90;;;;;;5093071;28;20237;-77
2022/04/07 09:12:02;;;;;;;0.60;0.23;;;11.40;99.90;;;;;;5092779;28;20205;-76
2022/04/07 09:14:33;;;;;;;0.30;0.30;;;11.50;99.90;;;;;;5092774;28;20180;-76
2022/04/07 09:16:58;;;;;;;0.33;0.33;;;11.50;99.90;;;;;;5092863;28;20151;-76
2022/04/07 09:19:24;;;;;;;0.50;0.30;;;11.70;99.90;;;;;;5093779;28;20214;-76
2022/04/07 09:22:10;;;;;;;3.63;1.03;;;11.50;99.90;;;;;;5096912;28;20179;-76
2022/04/07 09:24:37;;;;;;;2.73;0.70;;;10.40;99.90;;;;;;5078375;28;20184;-76
2022/04/07 09:27:05;;;;;;;1.20;0.50;;;9.80;99.90;;;;;;5096413;28;20178;-76
2022/04/07 09:29:45;;;;;;;4.37;0.70;;;9.30;99.90;;;;;;5078279;28;20286;-76
2022/04/07 09:32:19;;;;;;;0.97;0.57;;;9.10;99.90;;;;;;5096821;28;20182;-78
2022/04/07 09:34:50;;;;;;;1.97;1.40;;;9.00;99.90;;;;;;5096375;28;20178;-76
2022/04/07 09:37:20;;;;;;;4.07;1.83;;;8.80;99.90;;;;;;5096603;28;20201;-76
2022/04/07 09:39:46;;;;;;;4.77;1.90;;;8.80;99.90;;;;;;5096209;28;20692;-76
2022/04/07 09:42:22;;;;;;;6.70;2.40;;;8.70;99.90;;;;;;5096406;28;20232;-76
2022/04/07 09:44:54;;;;;;;6.80;3.03;;;8.70;99.90;;;;;;5096439;28;20176;-76
2022/04/07 09:47:20;;;;;;;7.53;3.40;;;8.70;99.90;;;;;;5096168;28;20171;-75
2022/04/07 09:49:49;;;;;;;2.93;1.80;;;8.70;99.90;;;;;;5095990;28;20194;-75
2022/04/07 09:52:24;;;;;;;2.13;1.10;;;8.70;99.90;;;;;;5096395;28;20185;-75
2022/04/07 09:54:53;;;;;;;3.77;0.60;;;8.70;99.90;;;;;;5096010;28;20176;-75
2022/04/07 09:57:20;;;;;;;1.13;0.50;;;8.70;99.90;;;;;;5095898;28;20296;-76
2022/04/07 09:59:46;;;;;;;0.80;0.50;;;8.70;99.90;;;;;;5095931;28;20684;-76
2022/04/07 10:02:11;;;;;;;1.00;0.50;;;8.70;99.90;;;;;;5096226;28;20198;-75
2022/04/07 10:04:38;;;;;;;1.13;0.67;;;8.70;99.90;;;;;;5077617;28;20217;-76
2022/04/07 10:07:05;;;;;;;1.13;0.73;;;8.80;99.90;;;;;;5095855;28;20213;-75
2022/04/07 10:09:33;;;;;;;2.00;0.60;;;8.90;99.90;;;;;;5095682;28;20229;-75
2022/04/07 10:11:59;;;;;;;0.80;0.70;;;8.90;99.90;;;;;;5095954;28;20269;-76
2022/04/07 10:14:27;;;;;;;1.63;0.80;;;9.00;99.90;;;;;;5077348;28;20699;-76
2022/04/07 10:16:52;;;;;;;2.90;0.80;;;9.00;99.90;;;;;;5077305;28;20181;-75
2022/04/07 10:19:32;;;;;;;1.40;0.90;;;9.20;99.90;;;;;;5095450;28;20202;-75
2022/04/07 10:22:17;;;;;;;1.50;0.90;;;9.30;99.90;;;;;;5095497;28;20170;-76
2022/04/07 10:24:53;;;;;;;1.10;1.00;;;9.40;99.90;;;;;;5096031;28;20178;-76
2022/04/07 10:27:22;;;;;;;4.20;1.50;;;9.50;99.90;;;;;;5095357;28;20211;-76
2022/04/07 10:30:11;;;;;;;3.67;1.10;;;9.60;99.90;;;;;;5077041;28;20213;-76
2022/04/07 10:32:44;;;;;;;3.87;1.40;;;9.80;99.90;;;;;;5095034;28;20656;-76
2022/04/07 10:35:39;;;;;;;1.93;1.33;;;9.90;99.90;;;;;;5095275;28;20178;-76
2022/04/07 10:38:14;;;;;;;2.77;1.40;;;10.10;99.90;;;;;;5056525;28;20210;-76
2022/04/07 10:40:46;;;;;;;1.50;1.03;;;10.30;99.90;;;;;;5095578;28;20164;-76
2022/04/07 10:43:17;;;;;;;3.40;1.23;;;10.40;99.90;;;;;;5095296;28;20636;-76
2022/04/07 10:45:48;;;;;;;1.93;0.97;;;10.50;99.90;;;;;;5095555;28;20205;-76
2022/04/07 10:48:51;;;;;;;3.23;1.40;;;10.60;99.90;;;;;;5095004;28;20186;-76
2022/04/07 10:51:18;;;;;;;1.17;0.80;;;10.70;99.90;;;;;;5094356;28;20605;-76
2022/04/07 10:53:53;;;;;;;1.20;0.70;;;10.80;99.90;;;;;;5076804;28;20187;-76
2022/04/07 10:56:34;;;;;;;1.30;0.50;;;10.90;99.90;;;;;;5095097;28;20683;-77
2022/04/07 10:59:26;;;;;;;0.97;0.70;;;11.00;99.90;;;;;;5076519;28;20218;-77
2022/04/07 11:01:59;;;;;;;0.50;0.50;;;11.10;99.90;;;;;;5094784;28;20157;-77
2022/04/07 11:04:24;;;;;;;1.00;0.50;;;11.20;99.90;;;;;;5076591;28;20267;-77
2022/04/07 11:07:05;;;;;;;0.67;0.53;;;11.40;99.90;;;;;;5076695;28;20213;-77
2022/04/07 11:09:54;;;;;;;3.67;0.67;;;11.40;1.00;;;;;;5094593;28;20190;-77
2022/04/07 11:12:37;;;;;;;1.43;0.60;;;11.60;1.00;;;;;;5094766;28;20198;-77
2022/04/07 11:15:03;;;;;;;1.40;0.70;;;11.70;13.20;;;;;;5076504;28;20553;-77
2022/04/07 11:17:32;;;;;;;0.80;0.70;;;11.90;99.90;;;;;;5094381;28;20202;-77
2022/04/07 11:20:24;;;;;;;3.00;0.87;;;12.00;1.00;;;;;;5106326;22;20238;-75
2022/04/07 11:23:12;;;;;;;2.03;0.90;;;12.00;99.90;;;;;;5072996;28;20186;-77
2022/04/07 11:25:47;;;;;;;1.67;0.83;;;11.90;1.00;;;;;;5075457;28;20186;-76
2022/04/07 11:28:22;;;;;;;2.67;0.83;;;11.90;99.90;;;;;;5074972;28;20162;-76
2022/04/07 11:31:04;;;;;;;1.00;0.60;;;12.00;1.00;;;;;;5074468;28;20167;-77
2022/04/07 11:33:38;;;;;;;1.47;0.80;;;12.10;70.60;;;;;;5073283;28;20171;-78
2022/04/07 11:36:03;;;;;;;2.40;0.80;;;12.20;1.00;;;;;;5074448;28;20693;-77
2022/04/07 11:38:30;;;;;;;1.57;0.70;;;12.30;1.00;;;;;;5073838;28;20253;-76
2022/04/07 11:41:07;;;;;;;1.50;0.50;;;12.40;99.90;;;;;;5075418;28;20206;-76
2022/04/07 11:43:35;;;;;;;1.10;0.60;;;12.40;1.00;;;;;;5076713;28;20206;-77
2022/04/07 11:46:04;;;;;;;2.40;0.60;;;12.50;99.90;;;;;;5078352;28;20180;-77
2022/04/07 11:48:34;;;;;;;5.60;0.80;;;12.60;1.00;;;;;;5077278;28;20210;-77
2022/04/07 11:51:00;;;;;;;3.63;0.80;;;12.70;1.00;;;;;;5077045;28;20207;-77
2022/04/07 11:53:29;;;;;;;1.23;0.80;;;12.70;1.00;;;;;;5076831;28;20183;-77
2022/04/07 11:56:10;;;;;;;2.43;0.80;;;12.60;99.90;;;;;;5075874;28;20186;-77
2022/04/07 11:58:36;;;;;;;2.33;0.63;;;12.50;99.90;;;;;;5076211;28;20576;-76
2022/04/07 12:01:11;;;;;;;1.17;0.60;;;12.50;1.00;;;;;;5077157;28;20205;-77
2022/04/07 12:03:40;;;;;;;0.70;0.60;;;12.50;63.50;;;;;;5075674;28;20259;-76
2022/04/07 12:06:05;;;;;;;1.73;0.80;;;12.60;1.00;;;;;;5075463;28;20232;-77
2022/04/07 12:08:31;;;;;;;5.97;1.20;;;12.60;1.00;;;;;;5075547;28;20198;-77
2022/04/07 12:10:58;;;;;;;4.07;0.90;;;12.60;1.00;;;;;;5076264;28;20181;-77
2022/04/07 12:13:23;;;;;;;2.67;0.80;;;12.60;1.00;;;;;;5075687;28;20175;-77
2022/04/07 12:15:49;;;;;;;3.07;0.90;;;12.70;99.90;;;;;;5076690;28;20182;-77
2022/04/07 12:18:27;;;;;;;2.23;0.80;;;12.80;1.00;;;;;;5075680;28;20702;-78
2022/04/07 12:21:05;;;;;;;2.83;0.77;;;13.00;1.00;;;;;;5074334;28;20228;-77
2022/04/07 12:23:31;;;;;;;4.13;0.63;;;13.10;1.00;;;;;;5075822;28;20175;-77
2022/04/07 12:26:01;;;;;;;1.77;0.73;;;13.20;99.90;;;;;;5074011;28;20179;-77
2022/04/07 12:28:41;;;;;;;5.23;1.10;;;13.30;99.90;;;;;;5075312;28;20701;-78
2022/04/07 12:31:20;;;;;;;4.87;1.00;;;13.40;1.00;;;;;;5075926;28;20269;-77
2022/04/07 12:33:48;;;;;;;3.53;1.00;;;13.60;47.50;;;;;;5074889;28;20525;-77
2022/04/07 12:36:16;;;;;;;5.43;1.20;;;13.50;99.90;;;;;;5059084;28;20183;-76
2022/04/07 12:38:57;;;;;;;6.87;1.23;;;13.30;1.00;;;;;;5057887;28;20604;-78
2022/04/07 12:41:34;;;;;;;6.30;1.63;;;12.40;27.40;;;;;;5076658;28;20187;-77
2022/04/07 12:43:59;;;;;;;4.97;1.37;;;11.90;1.00;;;;;;5058469;28;20228;-78
2022/04/07 12:46:51;;;;;;;6.23;1.90;;;11.60;99.90;;;;;;5078283;28;20175;-77
2022/04/07 12:49:31;;;;;;;6.43;1.50;;;11.50;99.90;;;;;;5059133;28;20289;-78
2022/04/07 12:52:11;;;;;;;10.47;2.60;;;11.40;1.00;;;;;;5076337;28;20186;-78
2022/04/07 12:54:38;;;;;;;3.60;1.50;;;11.20;1.00;;;;;;5055342;28;20250;-77
2022/04/07 12:57:14;;;;;;;6.17;1.90;;;11.20;99.90;;;;;;5055182;28;20195;-77
2022/04/07 12:59:52;;;;;;;7.63;2.30;;;11.20;88.70;;;;;;5054577;28;20705;-77